createdAt,value
2023-11-15T00:01:40.932Z,8.05
2023-11-15T00:04:10.041Z,8.05
2023-11-15T00:06:38.314Z,8.03
2023-11-15T00:09:07.484Z,8.05
2023-11-15T00:11:37.164Z,8.07
2023-11-15T00:14:05.790Z,8.06
2023-11-15T00:16:33.984Z,8.05
2023-11-15T00:19:05.659Z,8.06
2023-11-15T00:21:33.737Z,8.06
2023-11-15T00:24:01.938Z,8.07
2023-11-15T00:26:30.643Z,8.06
2023-11-15T00:28:59.775Z,8.07
2023-11-15T00:31:27.908Z,8.07
2023-11-15T00:33:56.069Z,8.07
2023-11-15T00:36:25.755Z,8.05
2023-11-15T00:38:54.285Z,8.05
2023-11-15T00:41:22.435Z,8.04
2023-11-15T00:43:50.903Z,8.05
2023-11-15T00:46:19.100Z,8.06
2023-11-15T00:48:47.399Z,8.05
2023-11-15T00:51:15.473Z,8.04
2023-11-15T00:53:45.293Z,8.01
2023-11-15T00:56:13.635Z,8.01
2023-11-15T00:58:42.634Z,8.02
2023-11-15T01:01:12.373Z,8.00
2023-11-15T01:03:47.049Z,7.99
2023-11-15T01:06:16.192Z,7.97
2023-11-15T01:08:46.442Z,7.97
2023-11-15T01:11:14.631Z,7.97
2023-11-15T01:13:42.814Z,7.97
2023-11-15T01:16:11.061Z,7.95
2023-11-15T01:18:39.256Z,7.92
2023-11-15T01:21:10.198Z,7.89
2023-11-15T01:23:38.542Z,7.86
2023-11-15T01:26:08.232Z,7.81
2023-11-15T01:28:36.659Z,7.73
2023-11-15T01:31:05.471Z,7.64
2023-11-15T01:33:33.725Z,7.59
2023-11-15T01:36:01.875Z,7.53
2023-11-15T01:38:31.043Z,7.48
2023-11-15T01:41:00.229Z,7.40
2023-11-15T01:43:29.669Z,7.36
2023-11-15T01:45:57.880Z,7.31
2023-11-15T01:48:26.943Z,7.25
2023-11-15T01:50:55.105Z,7.22
2023-11-15T01:53:23.412Z,7.16
2023-11-15T01:55:51.532Z,7.15
2023-11-15T01:58:20.199Z,7.13
2023-11-15T02:00:49.974Z,7.10
2023-11-15T02:03:19.573Z,7.08
2023-11-15T02:05:47.983Z,7.07
2023-11-15T02:08:17.602Z,7.06
2023-11-15T02:10:45.820Z,7.06
2023-11-15T02:13:24.756Z,7.05
2023-11-15T02:15:54.644Z,7.03
2023-11-15T02:18:23.298Z,7.03
2023-11-15T02:20:52.055Z,6.99
2023-11-15T02:23:22.049Z,6.98
2023-11-15T02:25:52.701Z,6.96
2023-11-15T02:28:21.072Z,6.97
2023-11-15T02:30:49.380Z,6.97
2023-11-15T02:33:17.642Z,6.97
2023-11-15T02:35:46.079Z,6.95
2023-11-15T02:38:14.290Z,6.95
2023-11-15T02:40:45.270Z,6.94
2023-11-15T02:43:15.914Z,6.96
2023-11-15T02:45:44.834Z,6.96
2023-11-15T02:48:13.206Z,6.95
2023-11-15T02:50:41.406Z,6.95
2023-11-15T02:53:09.518Z,6.95
2023-11-15T02:55:37.955Z,6.97
2023-11-15T02:58:06.084Z,6.96
2023-11-15T03:00:36.371Z,6.96
2023-11-15T03:03:05.628Z,6.97
2023-11-15T03:05:34.104Z,6.99
2023-11-15T03:08:02.455Z,6.99
2023-11-15T03:10:30.606Z,7.00
2023-11-15T03:12:58.811Z,7.01
2023-11-15T03:15:27.054Z,7.01
2023-11-15T03:17:56.774Z,6.99
2023-11-15T03:20:26.341Z,6.99
2023-11-15T03:22:55.013Z,6.99
2023-11-15T03:25:23.687Z,6.99
2023-11-15T03:27:52.164Z,7.02
2023-11-15T03:30:20.845Z,7.02
2023-11-15T03:32:49.249Z,7.01
2023-11-15T03:35:20.938Z,7.04
2023-11-15T03:37:49.273Z,7.03
2023-11-15T03:40:20.783Z,7.04
2023-11-15T03:42:49.018Z,7.03
2023-11-15T03:45:17.223Z,7.05
2023-11-15T03:47:45.327Z,7.05
2023-11-15T03:50:13.990Z,7.05
2023-11-15T03:52:43.745Z,7.05
2023-11-15T03:55:11.909Z,7.06
2023-11-15T03:57:40.185Z,7.07
2023-11-15T04:00:11.865Z,7.07
2023-11-15T04:02:43.351Z,7.07
2023-11-15T04:05:11.647Z,7.06
2023-11-15T04:07:40.202Z,7.06
2023-11-15T04:10:11.202Z,7.07
2023-11-15T04:12:39.733Z,7.10
2023-11-15T04:15:10.453Z,7.10
2023-11-15T04:17:39.413Z,7.12
2023-11-15T04:20:09.427Z,7.10
2023-11-15T04:22:37.498Z,7.10
2023-11-15T04:25:06.251Z,7.10
2023-11-15T04:27:35.806Z,7.10
2023-11-15T04:30:04.411Z,7.08
2023-11-15T04:32:32.574Z,7.08
2023-11-15T04:35:00.688Z,7.10
2023-11-15T04:37:29.480Z,7.08
2023-11-15T04:39:58.139Z,7.09
2023-11-15T04:42:26.327Z,7.10
2023-11-15T04:44:56.154Z,7.08
2023-11-15T04:47:24.425Z,7.11
2023-11-15T04:49:52.722Z,7.10
2023-11-15T04:52:20.795Z,7.11
2023-11-15T04:54:48.911Z,7.11
2023-11-15T04:57:17.289Z,7.12
2023-11-15T04:59:45.697Z,7.12
2023-11-15T05:02:15.147Z,7.12
2023-11-15T05:04:43.409Z,7.11
2023-11-15T05:07:12.192Z,7.11
2023-11-15T05:09:40.517Z,7.09
2023-11-15T05:12:09.662Z,7.09
2023-11-15T05:14:38.399Z,7.07
2023-11-15T05:17:06.886Z,7.06
2023-11-15T05:19:38.197Z,7.05
2023-11-15T05:22:06.460Z,7.03
2023-11-15T05:24:34.526Z,7.03
2023-11-15T05:27:03.410Z,7.05
2023-11-15T05:29:32.086Z,7.04
2023-11-15T05:32:00.388Z,7.05
2023-11-15T05:34:28.897Z,7.05
2023-11-15T05:36:58.330Z,7.07
2023-11-15T05:39:27.217Z,7.06
2023-11-15T05:41:55.376Z,7.05
2023-11-15T05:44:24.431Z,7.04
2023-11-15T05:46:52.508Z,7.05
2023-11-15T05:49:20.582Z,7.02
2023-11-15T05:51:48.673Z,7.04
2023-11-15T05:54:18.374Z,7.02
2023-11-15T05:56:48.019Z,7.05
2023-11-15T05:59:16.131Z,7.04
2023-11-15T06:01:44.478Z,7.05
2023-11-15T06:04:12.922Z,7.05
2023-11-15T06:06:41.354Z,7.05
2023-11-15T06:09:14.546Z,7.04
2023-11-15T06:11:44.107Z,7.05
2023-11-15T06:14:15.798Z,7.05
2023-11-15T06:16:44.100Z,7.08
2023-11-15T06:19:12.405Z,7.08
2023-11-15T06:21:43.939Z,7.11
2023-11-15T06:24:14.217Z,7.11
2023-11-15T06:26:45.837Z,7.11
2023-11-15T06:29:14.025Z,7.11
2023-11-15T06:31:42.551Z,7.12
2023-11-15T06:34:11.018Z,7.13
2023-11-15T06:36:42.815Z,7.13
2023-11-15T06:39:13.560Z,7.13
2023-11-15T06:41:43.215Z,7.14
2023-11-15T06:44:11.613Z,7.15
2023-11-15T06:46:40.517Z,7.15
2023-11-15T06:49:12.363Z,7.15
2023-11-15T06:51:40.877Z,7.15
2023-11-15T06:54:09.222Z,7.17
2023-11-15T06:56:37.346Z,7.19
2023-11-15T06:59:07.804Z,7.23
2023-11-15T07:01:36.184Z,7.23
2023-11-15T07:04:04.894Z,7.22
2023-11-15T07:06:33.583Z,7.23
2023-11-15T07:09:01.757Z,7.23
2023-11-15T07:11:29.872Z,7.24
2023-11-15T07:13:57.987Z,7.23
2023-11-15T07:16:27.882Z,7.25
2023-11-15T07:18:56.051Z,7.25
2023-11-15T07:21:24.201Z,7.27
2023-11-15T07:23:53.025Z,7.28
2023-11-15T07:26:22.554Z,7.28
2023-11-15T07:28:50.946Z,7.28
2023-11-15T07:31:20.091Z,7.27
2023-11-15T07:33:49.694Z,7.29
2023-11-15T07:36:17.819Z,7.29
2023-11-15T07:38:46.815Z,7.29
2023-11-15T07:41:14.963Z,7.30
2023-11-15T07:43:43.552Z,7.30
2023-11-15T07:46:11.830Z,7.30
2023-11-15T07:48:40.460Z,7.32
2023-11-15T07:51:11.624Z,7.32
2023-11-15T07:53:39.866Z,7.34
2023-11-15T07:56:09.944Z,7.35
2023-11-15T07:58:39.121Z,7.37
2023-11-15T08:01:09.701Z,7.39
2023-11-15T08:03:38.044Z,7.43
2023-11-15T08:06:07.326Z,7.45
2023-11-15T08:08:37.852Z,7.50
2023-11-15T08:11:06.753Z,7.55
2023-11-15T08:13:34.965Z,7.59
2023-11-15T08:16:03.774Z,7.63
2023-11-15T08:18:32.514Z,7.65
2023-11-15T08:21:00.944Z,7.66
2023-11-15T08:23:29.584Z,7.64
2023-11-15T08:26:03.611Z,7.62
2023-11-15T08:28:31.842Z,7.60
2023-11-15T08:31:00.562Z,7.58
2023-11-15T08:33:28.914Z,7.56
2023-11-15T08:35:57.761Z,7.58
2023-11-15T08:38:26.707Z,7.58
2023-11-15T08:40:56.822Z,7.59
2023-11-15T08:43:26.326Z,7.61
2023-11-15T08:45:55.439Z,7.59
2023-11-15T08:48:24.433Z,7.61
2023-11-15T08:50:53.063Z,7.59
2023-11-15T08:53:26.401Z,7.58
2023-11-15T08:55:54.870Z,7.58
2023-11-15T08:58:28.990Z,7.60
2023-11-15T09:01:03.156Z,7.63
2023-11-15T09:03:31.576Z,7.64
2023-11-15T09:06:01.120Z,7.67
2023-11-15T09:08:32.307Z,7.68
2023-11-15T09:11:00.986Z,7.68
2023-11-15T09:13:30.376Z,7.70
2023-11-15T09:16:00.438Z,7.73
2023-11-15T09:18:29.141Z,7.76
2023-11-15T09:20:59.507Z,7.77
2023-11-15T09:23:31.105Z,7.78
2023-11-15T09:26:00.503Z,7.76
2023-11-15T09:28:28.859Z,7.73
2023-11-15T09:30:57.576Z,7.77
2023-11-15T09:33:30.858Z,7.78
2023-11-15T09:36:01.457Z,7.81
2023-11-15T09:38:30.386Z,7.81
2023-11-15T09:41:05.923Z,7.83
2023-11-15T09:43:36.065Z,7.88
2023-11-15T09:46:09.953Z,7.91
2023-11-15T09:48:51.062Z,7.94
2023-11-15T09:51:26.037Z,8.00
2023-11-15T09:53:57.784Z,8.06
2023-11-15T09:56:31.654Z,8.07
2023-11-15T09:59:00.306Z,8.14
2023-11-15T10:01:28.678Z,8.17
2023-11-15T10:04:00.651Z,8.20
2023-11-15T10:06:41.096Z,8.24
2023-11-15T10:09:09.295Z,8.24
2023-11-15T10:11:39.309Z,8.23
2023-11-15T10:14:10.681Z,8.25
2023-11-15T10:16:38.758Z,8.27
2023-11-15T10:19:23.993Z,8.29
2023-11-15T10:21:57.744Z,8.26
2023-11-15T10:24:29.500Z,8.24
2023-11-15T10:27:01.255Z,8.23
2023-11-15T10:29:29.462Z,8.27
2023-11-15T10:32:02.012Z,8.30
2023-11-15T10:34:34.600Z,8.32
2023-11-15T10:37:08.738Z,8.40
2023-11-15T10:39:42.131Z,8.44
2023-11-15T10:42:10.858Z,8.54
2023-11-15T10:44:39.510Z,8.59
2023-11-15T10:47:08.846Z,8.65
2023-11-15T10:49:40.887Z,8.67
2023-11-15T10:52:10.153Z,8.66
2023-11-15T10:54:40.068Z,8.63
2023-11-15T10:57:10.099Z,8.57
2023-11-15T10:59:40.022Z,8.58
2023-11-15T11:02:08.776Z,8.55
2023-11-15T11:04:40.311Z,8.51
2023-11-15T11:07:14.862Z,8.53
2023-11-15T11:09:48.350Z,8.54
2023-11-15T11:12:18.313Z,8.55
2023-11-15T11:14:50.062Z,8.54
2023-11-15T11:17:34.561Z,8.56
2023-11-15T11:20:11.008Z,8.53
2023-11-15T11:22:39.358Z,8.54
2023-11-15T11:25:22.998Z,8.56
2023-11-15T11:27:58.286Z,8.59
2023-11-15T11:30:26.602Z,8.61
2023-11-15T11:33:17.132Z,8.62
2023-11-15T11:35:47.694Z,8.64
2023-11-15T11:38:44.348Z,8.66
2023-11-15T11:41:14.019Z,8.65
2023-11-15T11:43:43.343Z,8.69
2023-11-15T11:46:17.131Z,8.69
2023-11-15T11:48:46.918Z,8.67
2023-11-15T11:51:16.804Z,8.72
2023-11-15T11:53:47.946Z,8.75
2023-11-15T11:56:16.260Z,8.81
2023-11-15T11:58:45.102Z,8.91
2023-11-15T12:01:14.564Z,8.98
2023-11-15T12:03:47.915Z,9.08
2023-11-15T12:06:19.237Z,9.22
2023-11-15T12:08:49.915Z,9.41
2023-11-15T12:11:23.316Z,9.42
2023-11-15T12:13:52.088Z,9.40
2023-11-15T12:16:22.083Z,9.42
2023-11-15T12:19:02.567Z,9.47
2023-11-15T12:21:33.329Z,9.46
2023-11-15T12:24:01.627Z,9.47
2023-11-15T12:26:30.382Z,9.53
2023-11-15T12:28:58.502Z,9.55
2023-11-15T12:31:26.777Z,9.55
2023-11-15T12:33:54.882Z,9.62
2023-11-15T12:36:23.550Z,9.60
2023-11-15T12:38:56.942Z,9.49
2023-11-15T12:41:25.202Z,9.49
2023-11-15T12:44:03.240Z,9.46
2023-11-15T12:46:31.453Z,9.43
2023-11-15T12:48:59.596Z,9.42
2023-11-15T12:51:27.627Z,9.35
2023-11-15T12:54:00.414Z,9.32
2023-11-15T12:56:28.688Z,9.26
2023-11-15T12:58:57.304Z,9.23
2023-11-15T13:01:28.891Z,9.20
2023-11-15T13:03:57.860Z,9.19
2023-11-15T13:06:30.718Z,9.19
2023-11-15T13:09:04.174Z,9.18
2023-11-15T13:11:32.462Z,9.14
2023-11-15T13:14:00.037Z,9.17
2023-11-15T13:16:28.924Z,9.14
2023-11-15T13:18:58.523Z,9.12
2023-11-15T13:21:27.123Z,9.11
2023-11-15T13:23:55.595Z,9.06
2023-11-15T13:26:26.225Z,8.99
2023-11-15T13:28:54.639Z,8.91
2023-11-15T13:31:25.033Z,8.86
2023-11-15T13:33:56.642Z,8.85
2023-11-15T13:36:26.734Z,8.82
2023-11-15T13:38:56.723Z,8.72
2023-11-15T13:41:26.548Z,8.66
2023-11-15T13:43:55.216Z,8.54
2023-11-15T13:46:25.129Z,8.48
2023-11-15T13:48:54.657Z,8.43
2023-11-15T13:51:23.673Z,8.36
2023-11-15T13:53:52.562Z,8.36
2023-11-15T13:56:21.201Z,8.36
2023-11-15T13:58:50.701Z,8.34
2023-11-15T14:01:18.847Z,8.30
2023-11-15T14:03:47.073Z,8.28
2023-11-15T14:06:15.551Z,8.17
2023-11-15T14:08:52.042Z,8.12
2023-11-15T14:11:29.066Z,8.05
2023-11-15T14:13:58.846Z,7.92
2023-11-15T14:16:27.249Z,7.87
2023-11-15T14:18:56.184Z,7.80
2023-11-15T14:21:25.590Z,7.76
2023-11-15T14:23:54.027Z,7.75
2023-11-15T14:26:22.458Z,7.79
2023-11-15T14:28:51.191Z,7.80
2023-11-15T14:31:20.774Z,7.76
2023-11-15T14:33:49.058Z,7.75
2023-11-15T14:36:18.171Z,7.73
2023-11-15T14:38:49.597Z,7.73
2023-11-15T14:41:18.810Z,7.76
2023-11-15T14:43:47.239Z,7.80
2023-11-15T14:46:16.821Z,7.78
2023-11-15T14:48:46.765Z,7.78
2023-11-15T14:51:15.934Z,7.75
2023-11-15T14:53:54.304Z,7.71
2023-11-15T14:56:23.380Z,7.71
2023-11-15T14:58:55.346Z,7.69
2023-11-15T15:01:25.619Z,7.68
2023-11-15T15:03:55.527Z,7.64
2023-11-15T15:06:23.936Z,7.63
2023-11-15T15:08:52.054Z,7.61
2023-11-15T15:11:20.185Z,7.57
2023-11-15T15:13:48.268Z,7.49
2023-11-15T15:16:17.860Z,7.42
2023-11-15T15:18:46.203Z,7.41
2023-11-15T15:21:16.061Z,7.38
2023-11-15T15:23:44.505Z,7.34
2023-11-15T15:26:13.974Z,7.32
2023-11-15T15:28:42.647Z,7.27
2023-11-15T15:31:10.794Z,7.21
2023-11-15T15:33:39.092Z,7.16
2023-11-15T15:36:10.380Z,7.11
2023-11-15T15:38:40.112Z,7.05
2023-11-15T15:41:08.413Z,7.00
2023-11-15T15:43:37.248Z,6.97
2023-11-15T15:46:05.811Z,6.96
2023-11-15T15:48:34.741Z,7.01
2023-11-15T15:51:02.953Z,7.01
2023-11-15T15:53:31.194Z,6.99
2023-11-15T15:56:00.986Z,7.03
2023-11-15T15:58:29.994Z,7.06
2023-11-15T16:00:58.063Z,7.08
2023-11-15T16:03:27.587Z,7.10
2023-11-15T16:05:55.989Z,7.17
2023-11-15T16:08:24.594Z,7.18
2023-11-15T16:10:56.110Z,7.15
2023-11-15T16:13:26.116Z,7.17
2023-11-15T16:15:54.390Z,7.17
2023-11-15T16:18:22.588Z,7.21
2023-11-15T16:20:50.759Z,7.23
2023-11-15T16:23:19.568Z,7.22
2023-11-15T16:25:47.802Z,7.19
2023-11-15T16:28:16.097Z,7.17
2023-11-15T16:30:45.882Z,7.15
2023-11-15T16:33:14.236Z,7.14
2023-11-15T16:35:41.344Z,7.12
2023-11-15T16:38:09.978Z,7.11
2023-11-15T16:40:40.347Z,7.05
2023-11-15T16:43:11.479Z,7.05
2023-11-15T16:45:41.107Z,7.06
2023-11-15T16:48:11.339Z,7.07
2023-11-15T16:50:41.771Z,7.09
2023-11-15T16:53:11.451Z,7.15
2023-11-15T16:55:41.616Z,7.16
2023-11-15T16:58:12.150Z,7.19
2023-11-15T17:00:41.081Z,7.23
2023-11-15T17:03:11.532Z,7.27
2023-11-15T17:05:40.056Z,7.30
2023-11-15T17:08:08.596Z,7.33
2023-11-15T17:10:36.999Z,7.35
2023-11-15T17:13:06.403Z,7.32
2023-11-15T17:15:34.548Z,7.31
2023-11-15T17:18:03.349Z,7.30
2023-11-15T17:20:32.997Z,7.27
2023-11-15T17:23:01.205Z,7.25
2023-11-15T17:25:29.273Z,7.22
2023-11-15T17:27:58.523Z,7.17
2023-11-15T17:30:27.259Z,7.12
2023-11-15T17:32:55.664Z,7.10
2023-11-15T17:35:24.005Z,7.05
2023-11-15T17:37:55.336Z,7.04
2023-11-15T17:40:25.106Z,7.02
2023-11-15T17:42:53.639Z,6.98
2023-11-15T17:45:22.175Z,6.98
2023-11-15T17:47:50.220Z,6.95
2023-11-15T17:50:21.590Z,6.98
2023-11-15T17:52:50.949Z,6.97
2023-11-15T17:55:20.423Z,6.99
2023-11-15T17:57:48.549Z,6.97
2023-11-15T18:00:18.340Z,6.98
2023-11-15T18:02:46.799Z,6.99
2023-11-15T18:05:14.993Z,6.98
2023-11-15T18:07:44.393Z,6.96
2023-11-15T18:10:14.555Z,6.94
2023-11-15T18:12:45.139Z,6.91
2023-11-15T18:15:14.243Z,6.84
2023-11-15T18:17:43.037Z,6.77
2023-11-15T18:20:13.417Z,6.71
2023-11-15T18:22:41.528Z,6.62
2023-11-15T18:25:13.110Z,6.54
2023-11-15T18:27:44.085Z,6.52
2023-11-15T18:30:14.699Z,6.52
2023-11-15T18:32:44.256Z,6.52
2023-11-15T18:35:12.373Z,6.53
2023-11-15T18:37:41.454Z,6.52
2023-11-15T18:40:13.166Z,6.49
2023-11-15T18:42:41.921Z,6.48
2023-11-15T18:45:12.328Z,6.46
2023-11-15T18:47:42.725Z,6.39
2023-11-15T18:50:12.108Z,6.37
2023-11-15T18:52:42.204Z,6.37
2023-11-15T18:55:13.699Z,6.37
2023-11-15T18:57:42.595Z,6.38
2023-11-15T19:00:13.968Z,6.34
2023-11-15T19:02:46.052Z,6.29
2023-11-15T19:05:15.167Z,6.26
2023-11-15T19:07:45.779Z,6.21
2023-11-15T19:10:18.030Z,6.19
2023-11-15T19:12:46.589Z,6.16
2023-11-15T19:15:14.960Z,6.13
2023-11-15T19:17:49.973Z,6.08
2023-11-15T19:20:19.080Z,6.05
2023-11-15T19:22:48.642Z,6.00
2023-11-15T19:25:17.201Z,5.92
2023-11-15T19:27:45.598Z,5.89
2023-11-15T19:30:14.183Z,5.86
2023-11-15T19:32:42.623Z,5.83
2023-11-15T19:35:12.244Z,5.79
2023-11-15T19:37:44.000Z,5.73
2023-11-15T19:40:12.956Z,5.72
2023-11-15T19:42:41.090Z,5.74
2023-11-15T19:45:12.549Z,5.76
2023-11-15T19:47:41.562Z,5.73
2023-11-15T19:50:12.832Z,5.72
2023-11-15T19:52:42.041Z,5.74
2023-11-15T19:55:12.650Z,5.74
2023-11-15T19:57:41.559Z,5.71
2023-11-15T20:00:14.008Z,5.71
2023-11-15T20:02:46.841Z,5.70
2023-11-15T20:05:18.107Z,5.69
2023-11-15T20:07:46.494Z,5.62
2023-11-15T20:10:14.711Z,5.61
2023-11-15T20:12:43.003Z,5.64
2023-11-15T20:15:12.324Z,5.58
2023-11-15T20:17:41.004Z,5.55
2023-11-15T20:20:10.848Z,5.65
2023-11-15T20:22:48.403Z,5.62
2023-11-15T20:25:21.004Z,5.65
2023-11-15T20:27:49.142Z,5.72
2023-11-15T20:30:19.434Z,5.77
2023-11-15T20:32:48.139Z,5.84
2023-11-15T20:35:17.658Z,5.86
2023-11-15T20:37:47.163Z,5.88
2023-11-15T20:40:17.006Z,5.95
2023-11-15T20:42:48.099Z,5.97
2023-11-15T20:45:17.386Z,6.03
2023-11-15T20:47:46.104Z,6.06
2023-11-15T20:50:14.513Z,6.10
2023-11-15T20:52:42.763Z,6.16
2023-11-15T20:55:11.646Z,6.18
2023-11-15T20:57:40.297Z,6.21
2023-11-15T21:00:13.090Z,6.22
2023-11-15T21:02:41.858Z,6.24
2023-11-15T21:05:12.686Z,6.27
2023-11-15T21:07:41.319Z,6.30
2023-11-15T21:10:11.006Z,6.26
2023-11-15T21:12:40.850Z,6.20
2023-11-15T21:15:11.121Z,6.13
2023-11-15T21:17:39.817Z,6.12
2023-11-15T21:20:12.267Z,6.05
2023-11-15T21:22:41.134Z,5.99
2023-11-15T21:25:12.715Z,5.94
2023-11-15T21:27:42.844Z,5.94
2023-11-15T21:30:13.062Z,5.93
2023-11-15T21:32:41.676Z,5.93
2023-11-15T21:35:10.932Z,5.93
2023-11-15T21:37:42.963Z,5.97
2023-11-15T21:40:16.251Z,5.99
2023-11-15T21:42:46.332Z,6.01
2023-11-15T21:45:14.813Z,6.02
2023-11-15T21:47:43.762Z,6.00
2023-11-15T21:50:15.960Z,5.99
2023-11-15T21:52:44.673Z,5.95
2023-11-15T21:55:12.982Z,5.94
2023-11-15T21:57:41.351Z,5.88
2023-11-15T22:00:15.940Z,5.85
2023-11-15T22:02:44.211Z,5.76
2023-11-15T22:05:12.740Z,5.68
2023-11-15T22:07:40.920Z,5.61
2023-11-15T22:10:10.667Z,5.58
2023-11-15T22:12:39.210Z,5.57
2023-11-15T22:15:10.421Z,5.51
2023-11-15T22:17:41.066Z,5.47
2023-11-15T22:20:11.741Z,5.46
2023-11-15T22:22:40.011Z,5.41
2023-11-15T22:25:08.762Z,5.39
2023-11-15T22:27:36.989Z,5.42
2023-11-15T22:30:07.835Z,5.43
2023-11-15T22:32:36.468Z,5.38
2023-11-15T22:35:08.059Z,5.40
2023-11-15T22:37:36.196Z,5.41
2023-11-15T22:40:04.408Z,5.37
2023-11-15T22:42:32.496Z,5.28
2023-11-15T22:45:00.703Z,5.27
2023-11-15T22:47:29.185Z,5.26
2023-11-15T22:49:57.289Z,5.25
2023-11-15T22:52:27.223Z,5.25
2023-11-15T22:54:55.998Z,5.22
2023-11-15T22:57:24.151Z,5.25
2023-11-15T22:59:53.034Z,5.25
2023-11-15T23:02:22.055Z,5.18
2023-11-15T23:04:50.557Z,5.16
2023-11-15T23:07:21.837Z,5.16
2023-11-15T23:09:52.165Z,5.19
2023-11-15T23:12:20.303Z,5.22
2023-11-15T23:14:49.403Z,5.30
2023-11-15T23:17:17.996Z,5.29
2023-11-15T23:19:46.246Z,5.27
2023-11-15T23:22:15.609Z,5.20
2023-11-15T23:24:44.025Z,5.19
2023-11-15T23:27:14.020Z,5.18
2023-11-15T23:29:42.536Z,5.22
2023-11-15T23:32:10.863Z,5.28
2023-11-15T23:34:39.156Z,5.34
2023-11-15T23:37:07.248Z,5.40
2023-11-15T23:39:35.694Z,5.42
2023-11-15T23:42:05.468Z,5.42
2023-11-15T23:44:36.199Z,5.40
2023-11-15T23:47:07.218Z,5.38
2023-11-15T23:49:37.598Z,5.36
2023-11-15T23:52:06.751Z,5.32
2023-11-15T23:54:35.308Z,5.30
2023-11-15T23:57:04.670Z,5.24
2023-11-15T23:59:34.328Z,5.19
